Time;durP1;ratioP1;P1;durP2;ratioP2;P2;SDS_P1;SDS_P2;PMS_P1;PMS_P2;Temp;Humidity;BMP_temperature;BMP_pressure;BME280_temperature;BME280_humidity;BME280_pressure;Samples;Min_cycle;Max_cycle;Signal;HPM_P1;HPM_P2
2022/02/12 00:00:29;;;;;;;24.80;2.97;;;;;;;;;;5020844;28;20089;-63
2022/02/12 00:02:55;;;;;;;18.63;4.57;;;;;;;;;;5022808;28;20444;-63
2022/02/12 00:05:24;;;;;;;23.42;2.90;;;;;;;;;;5020179;28;20395;-63
2022/02/12 00:07:56;;;;;;;24.67;3.45;;;;;;;;;;5021037;28;20046;-63
2022/02/12 00:10:23;;;;;;;25.58;3.30;;;;;;;;;;5021469;28;20050;-63
2022/02/12 00:12:49;;;;;;;35.00;4.35;;;;;;;;;;5022346;28;20133;-63
2022/02/12 00:15:16;;;;;;;17.07;3.20;;;;;;;;;;5020609;28;20111;-63
2022/02/12 00:17:44;;;;;;;25.83;3.08;;;;;;;;;;5023031;28;20074;-63
2022/02/12 00:20:10;;;;;;;23.10;3.70;;;;;;;;;;5024457;28;20097;-63
2022/02/12 00:22:37;;;;;;;15.57;2.50;;;;;;;;;;5027145;28;20112;-63
2022/02/12 00:25:10;;;;;;;22.00;3.20;;;;;;;;;;5020290;28;20563;-63
2022/02/12 00:27:37;;;;;;;19.70;3.15;;;;;;;;;;5020933;28;20570;-64
2022/02/12 00:30:04;;;;;;;22.67;3.17;;;;;;;;;;5022981;28;20145;-63
2022/02/12 00:32:30;;;;;;;24.95;2.83;;;;;;;;;;5024148;28;20093;-64
2022/02/12 00:34:57;;;;;;;30.33;3.13;;;;;;;;;;5022074;28;20092;-63
2022/02/12 00:37:26;;;;;;;31.37;3.53;;;;;;;;;;5023118;28;20108;-63
2022/02/12 00:39:59;;;;;;;25.77;3.63;;;;;;;;;;5020037;28;20141;-63
2022/02/12 00:42:27;;;;;;;;;;;;;;;;;;5021203;28;20512;-64
2022/02/12 00:44:53;;;;;;;21.17;2.78;;;;;;;;;;5022195;28;20016;-64
2022/02/12 00:47:20;;;;;;;16.23;3.40;;;;;;;;;;5018573;28;20136;-63
2022/02/12 00:49:46;;;;;;;16.50;2.10;;;;;;;;;;5019716;28;20173;-64
2022/02/12 00:52:13;;;;;;;23.20;4.38;;;;;;;;;;5021002;28;20372;-64
2022/02/12 00:54:46;;;;;;;26.15;3.30;;;;;;;;;;5025856;28;20128;-63
2022/02/12 00:57:13;;;;;;;19.98;3.05;;;;;;;;;;5027811;28;20160;-63
2022/02/12 00:59:40;;;;;;;30.00;3.70;;;;;;;;;;5025926;28;20088;-64
2022/02/12 01:02:08;;;;;;;14.57;2.85;;;;;;;;;;5023618;28;20104;-64
2022/02/12 01:04:35;;;;;;;16.83;3.20;;;;;;;;;;5024306;28;20077;-64
2022/02/12 01:07:01;;;;;;;21.30;3.25;;;;;;;;;;5022556;28;20053;-64
2022/02/12 01:09:28;;;;;;;24.35;3.45;;;;;;;;;;5023954;28;20476;-64
2022/02/12 01:11:54;;;;;;;16.35;3.17;;;;;;;;;;5023171;28;20535;-64
2022/02/12 01:14:21;;;;;;;24.00;3.25;;;;;;;;;;5022948;28;20088;-64
2022/02/12 01:16:48;;;;;;;22.50;2.92;;;;;;;;;;5027271;28;20124;-64
2022/02/12 01:19:15;;;;;;;27.50;3.33;;;;;;;;;;5023563;28;20137;-63
2022/02/12 01:21:41;;;;;;;27.60;3.33;;;;;;;;;;5025279;28;20077;-64
2022/02/12 01:24:08;;;;;;;30.80;4.03;;;;;;;;;;5022257;28;20088;-63
2022/02/12 01:26:34;;;;;;;37.10;3.97;;;;;;;;;;5022429;28;20100;-64
2022/02/12 01:29:01;;;;;;;21.90;3.33;;;;;;;;;;5025177;28;20095;-63
2022/02/12 01:31:29;;;;;;;22.33;3.90;;;;;;;;;;5024634;28;20137;-63
2022/02/12 01:33:56;;;;;;;26.58;3.72;;;;;;;;;;5024613;28;20163;-63
2022/02/12 01:36:22;;;;;;;20.08;3.67;;;;;;;;;;5024233;28;20081;-63
2022/02/12 01:38:49;;;;;;;21.50;3.20;;;;;;;;;;5024243;28;20092;-63
2022/02/12 01:41:15;;;;;;;17.83;3.03;;;;;;;;;;5023630;28;20089;-63
2022/02/12 01:43:42;;;;;;;26.27;3.15;;;;;;;;;;5022598;28;20145;-63
2022/02/12 01:46:15;;;;;;;18.42;3.20;;;;;;;;;;5022575;28;20164;-64
2022/02/12 01:48:44;;;;;;;22.58;2.92;;;;;;;;;;5026559;28;20128;-63
2022/02/12 01:51:10;;;;;;;38.10;4.55;;;;;;;;;;5019540;28;20065;-64
2022/02/12 01:53:39;;;;;;;25.05;2.97;;;;;;;;;;5026208;28;20077;-63
2022/02/12 01:56:06;;;;;;;23.35;3.47;;;;;;;;;;5023156;28;20115;-63
2022/02/12 01:58:32;;;;;;;25.67;3.70;;;;;;;;;;5028232;28;20535;-64
2022/02/12 02:01:03;;;;;;;19.63;3.03;;;;;;;;;;5022225;28;20045;-63
2022/02/12 02:03:31;;;;;;;30.38;3.92;;;;;;;;;;5026014;28;20050;-64
2022/02/12 02:05:59;;;;;;;39.88;5.00;;;;;;;;;;5022549;28;20466;-64
2022/02/12 02:08:28;;;;;;;25.85;3.28;;;;;;;;;;5023565;28;20191;-63
2022/02/12 02:10:55;;;;;;;28.53;3.50;;;;;;;;;;5023629;28;20077;-64
2022/02/12 02:13:25;;;;;;;27.97;4.30;;;;;;;;;;5023614;28;20065;-63
2022/02/12 02:15:52;;;;;;;23.95;3.80;;;;;;;;;;5027830;28;20084;-63
2022/02/12 02:18:20;;;;;;;25.88;4.15;;;;;;;;;;5022813;28;20143;-63
2022/02/12 02:20:46;;;;;;;21.08;2.80;;;;;;;;;;5024397;28;20081;-63
2022/02/12 02:23:19;;;;;;;28.38;3.60;;;;;;;;;;5025072;28;20103;-63
2022/02/12 02:25:46;;;;;;;35.65;4.55;;;;;;;;;;5024540;28;20088;-63
2022/02/12 02:28:12;;;;;;;25.92;3.28;;;;;;;;;;5021979;28;20460;-63
2022/02/12 02:30:39;;;;;;;33.92;3.65;;;;;;;;;;5022586;28;20081;-63
2022/02/12 02:33:06;;;;;;;31.80;4.65;;;;;;;;;;5019201;28;20084;-64
2022/02/12 02:35:32;;;;;;;18.20;3.17;;;;;;;;;;5021902;28;20137;-63
2022/02/12 02:38:08;;;;;;;30.02;4.40;;;;;;;;;;5027615;28;20505;-63
2022/02/12 02:40:36;;;;;;;33.42;3.90;;;;;;;;;;5024337;28;20071;-63
2022/02/12 02:43:02;;;;;;;31.02;4.38;;;;;;;;;;5022009;28;20142;-64
2022/02/12 02:45:29;;;;;;;29.70;4.90;;;;;;;;;;5021731;28;20631;-63
2022/02/12 02:48:00;;;;;;;41.37;5.07;;;;;;;;;;5021172;28;20096;-63
2022/02/12 02:56:05;;;;;;;34.60;4.65;;;;;;;;;;5022988;28;20081;-63
2022/02/12 02:58:38;;;;;;;29.77;3.83;;;;;;;;;;5020263;28;20096;-63
2022/02/12 03:01:06;;;;;;;38.70;4.57;;;;;;;;;;5022912;28;20480;-63
2022/02/12 03:03:33;;;;;;;34.25;4.03;;;;;;;;;;5010696;28;20072;-63
2022/02/12 03:06:00;;;;;;;34.67;4.25;;;;;;;;;;5021093;28;20065;-63
2022/02/12 03:08:29;;;;;;;34.25;4.78;;;;;;;;;;5023313;28;20058;-63
2022/02/12 03:10:56;;;;;;;28.20;4.38;;;;;;;;;;5025320;28;20081;-63
2022/02/12 03:13:22;;;;;;;32.40;3.63;;;;;;;;;;5021913;28;20084;-64
2022/02/12 03:15:49;;;;;;;20.20;3.67;;;;;;;;;;5016147;28;20049;-63
2022/02/12 03:18:16;;;;;;;31.05;3.83;;;;;;;;;;5022318;28;20650;-63
2022/02/12 03:20:42;;;;;;;28.40;3.78;;;;;;;;;;5022908;28;20510;-63
2022/02/12 03:23:16;;;;;;;32.35;5.15;;;;;;;;;;5020211;28;20077;-63
2022/02/12 03:25:43;;;;;;;38.42;4.20;;;;;;;;;;5021706;28;20046;-63
2022/02/12 03:28:10;;;;;;;32.55;5.03;;;;;;;;;;5021081;28;20077;-63
2022/02/12 03:30:46;;;;;;;29.42;4.10;;;;;;;;;;5023266;28;20073;-63
2022/02/12 03:33:14;;;;;;;36.58;4.13;;;;;;;;;;5022890;28;20485;-63
2022/02/12 03:35:41;;;;;;;22.15;3.85;;;;;;;;;;5026092;28;20081;-63
2022/02/12 03:38:16;;;;;;;39.50;4.75;;;;;;;;;;5020588;28;20083;-63
2022/02/12 03:40:44;;;;;;;25.27;3.78;;;;;;;;;;5021918;28;20046;-63
2022/02/12 03:43:10;;;;;;;;;;;;;;;;;;5026440;28;20140;-63
2022/02/12 03:45:43;;;;;;;31.20;3.92;;;;;;;;;;5020571;28;19967;-63
2022/02/12 03:48:10;;;;;;;36.42;3.95;;;;;;;;;;5023355;28;20144;-63
2022/02/12 03:50:37;;;;;;;34.97;3.75;;;;;;;;;;5022494;28;20049;-63
2022/02/12 03:53:10;;;;;;;22.00;3.55;;;;;;;;;;5019763;28;20073;-63
2022/02/12 03:55:39;;;;;;;38.03;5.33;;;;;;;;;;5020913;28;20084;-63
2022/02/12 03:58:06;;;;;;;27.25;3.22;;;;;;;;;;5019391;28;20624;-63
2022/02/12 04:00:34;;;;;;;30.63;4.05;;;;;;;;;;5022945;28;20069;-63
2022/02/12 04:03:01;;;;;;;29.10;4.32;;;;;;;;;;5022655;28;20085;-64
2022/02/12 04:05:28;;;;;;;24.98;4.05;;;;;;;;;;5024446;28;20118;-63
2022/02/12 04:08:02;;;;;;;34.45;4.72;;;;;;;;;;5020400;28;20065;-63
2022/02/12 04:10:29;;;;;;;48.25;5.53;;;;;;;;;;5019857;28;20083;-63
2022/02/12 04:12:55;;;;;;;33.47;4.43;;;;;;;;;;5021004;28;20073;-63
2022/02/12 04:15:25;;;;;;;38.17;5.05;;;;;;;;;;5019815;28;20078;-63
2022/02/12 04:17:51;;;;;;;29.38;4.15;;;;;;;;;;5022253;28;20046;-63
2022/02/12 04:20:18;;;;;;;25.25;4.70;;;;;;;;;;5022750;28;20078;-63
2022/02/12 04:22:52;;;;;;;21.48;4.03;;;;;;;;;;5020334;28;20169;-63
2022/02/12 04:25:19;;;;;;;36.08;4.78;;;;;;;;;;5024206;28;20049;-63
2022/02/12 04:27:46;;;;;;;27.85;4.38;;;;;;;;;;5019243;28;20119;-63
2022/02/12 04:30:19;;;;;;;26.35;3.30;;;;;;;;;;5022800;28;20076;-63
2022/02/12 04:32:46;;;;;;;27.40;3.97;;;;;;;;;;5024701;28;20499;-63
2022/02/12 04:35:16;;;;;;;22.45;4.40;;;;;;;;;;5018811;28;20077;-63
2022/02/12 04:37:44;;;;;;;25.17;3.65;;;;;;;;;;5023246;28;20141;-63
2022/02/12 04:40:10;;;;;;;33.55;3.58;;;;;;;;;;5012383;28;20065;-63
2022/02/12 04:42:37;;;;;;;33.35;4.28;;;;;;;;;;5023069;28;20141;-65
2022/02/12 04:45:06;;;;;;;35.72;4.68;;;;;;;;;;5023614;28;20132;-63
2022/02/12 04:47:33;;;;;;;27.42;4.20;;;;;;;;;;5025929;28;20077;-63
2022/02/12 04:50:00;;;;;;;33.83;3.88;;;;;;;;;;5023062;28;20189;-63
2022/02/12 04:52:30;;;;;;;38.10;3.90;;;;;;;;;;5024281;28;20060;-63
2022/02/12 04:54:57;;;;;;;42.95;4.30;;;;;;;;;;5023390;28;20454;-63
2022/02/12 04:57:23;;;;;;;28.30;4.03;;;;;;;;;;5026035;28;20081;-63
2022/02/12 04:59:56;;;;;;;33.63;5.15;;;;;;;;;;5026894;28;20053;-63
2022/02/12 05:02:22;;;;;;;34.60;4.63;;;;;;;;;;5025586;28;20124;-63
2022/02/12 05:04:49;;;;;;;33.60;4.40;;;;;;;;;;5025961;28;20053;-63
2022/02/12 05:07:16;;;;;;;29.58;3.63;;;;;;;;;;5010246;28;20120;-64
2022/02/12 05:09:43;;;;;;;28.90;4.55;;;;;;;;;;5039575;28;20106;-63
2022/02/12 05:12:09;;;;;;;40.72;4.75;;;;;;;;;;5041865;28;20077;-64
2022/02/12 05:14:36;;;;;;;38.00;5.15;;;;;;;;;;5043677;28;20081;-63
2022/02/12 05:17:03;;;;;;;33.37;4.03;;;;;;;;;;5045024;28;20066;-64
2022/02/12 05:19:30;;;;;;;33.17;4.07;;;;;;;;;;5046837;28;20080;-64
2022/02/12 05:21:57;;;;;;;34.72;4.60;;;;;;;;;;5046187;28;20107;-63
2022/02/12 05:24:24;;;;;;;31.80;4.85;;;;;;;;;;5045229;28;20075;-63
2022/02/12 05:26:50;;;;;;;33.72;4.20;;;;;;;;;;5040839;28;20118;-63
2022/02/12 05:29:23;;;;;;;32.17;4.18;;;;;;;;;;5044815;28;20052;-63
2022/02/12 05:31:50;;;;;;;37.40;5.13;;;;;;;;;;5044286;28;20476;-64
2022/02/12 05:34:17;;;;;;;33.55;4.88;;;;;;;;;;5045395;28;20079;-63
2022/02/12 05:36:47;;;;;;;37.35;5.03;;;;;;;;;;5038579;28;20103;-63
2022/02/12 05:39:13;;;;;;;31.83;4.78;;;;;;;;;;5043062;28;20084;-63
2022/02/12 05:41:40;;;;;;;28.73;4.38;;;;;;;;;;5039387;28;20084;-64
2022/02/12 05:44:10;;;;;;;25.58;3.92;;;;;;;;;;5043582;28;20087;-64
2022/02/12 05:46:37;;;;;;;23.67;3.80;;;;;;;;;;5043028;28;20085;-63
2022/02/12 05:49:04;;;;;;;28.75;4.45;;;;;;;;;;5043328;28;20147;-63
2022/02/12 05:51:33;;;;;;;27.30;4.15;;;;;;;;;;5041765;28;20682;-64
2022/02/12 05:54:01;;;;;;;20.55;4.57;;;;;;;;;;5039191;28;20084;-64
2022/02/12 05:56:27;;;;;;;;;;;;;;;;;;5045509;28;20072;-64
2022/02/12 05:59:03;;;;;;;34.47;4.90;;;;;;;;;;5045172;28;20394;-64
2022/02/12 06:01:30;;;;;;;28.42;3.63;;;;;;;;;;5040426;28;20497;-64
2022/02/12 06:03:56;;;;;;;19.00;3.22;;;;;;;;;;5043507;28;20093;-64
2022/02/12 06:06:25;;;;;;;32.88;5.05;;;;;;;;;;5040417;28;20574;-63
2022/02/12 06:08:54;;;;;;;24.50;3.13;;;;;;;;;;5034103;28;20104;-64
2022/02/12 06:11:21;;;;;;;27.70;4.20;;;;;;;;;;5026998;28;20073;-64
2022/02/12 06:13:52;;;;;;;41.22;4.93;;;;;;;;;;5024248;28;20865;-64
2022/02/12 06:16:19;;;;;;;29.20;3.95;;;;;;;;;;5023141;28;20124;-64
2022/02/12 06:18:45;;;;;;;45.22;5.90;;;;;;;;;;5021342;28;20132;-63
2022/02/12 06:21:18;;;;;;;28.85;4.40;;;;;;;;;;5026491;28;20088;-63
2022/02/12 06:23:45;;;;;;;31.67;4.47;;;;;;;;;;5027460;28;20076;-64
2022/02/12 06:26:11;;;;;;;35.28;4.22;;;;;;;;;;5022670;28;20042;-64
2022/02/12 06:28:44;;;;;;;31.25;4.47;;;;;;;;;;5022475;28;20085;-64
2022/02/12 06:31:11;;;;;;;27.90;3.90;;;;;;;;;;5022745;28;20081;-64
2022/02/12 06:33:37;;;;;;;32.78;4.47;;;;;;;;;;5025859;28;20088;-64
2022/02/12 06:36:07;;;;;;;23.38;3.90;;;;;;;;;;5023205;28;20140;-63
2022/02/12 06:38:33;;;;;;;44.08;3.88;;;;;;;;;;5020260;28;20080;-63
2022/02/12 06:40:59;;;;;;;34.80;3.67;;;;;;;;;;5023887;28;20133;-63
2022/02/12 06:43:28;;;;;;;30.92;4.40;;;;;;;;;;5024845;28;20168;-64
2022/02/12 06:45:55;;;;;;;29.80;3.67;;;;;;;;;;5025338;28;20045;-64
2022/02/12 06:48:21;;;;;;;30.75;3.60;;;;;;;;;;5023429;28;20132;-64
2022/02/12 06:50:51;;;;;;;24.95;3.95;;;;;;;;;;5023613;28;20084;-64
2022/02/12 06:53:18;;;;;;;23.48;3.65;;;;;;;;;;5025007;28;20481;-64
2022/02/12 06:55:44;;;;;;;33.85;4.07;;;;;;;;;;5022067;28;20678;-64
2022/02/12 06:58:13;;;;;;;31.70;4.18;;;;;;;;;;5023572;28;20081;-63
2022/02/12 07:00:39;;;;;;;29.52;4.00;;;;;;;;;;5020659;28;20172;-64
2022/02/12 07:03:06;;;;;;;28.20;3.72;;;;;;;;;;5021415;28;20053;-64
2022/02/12 07:05:33;;;;;;;;;;;;;;;;;;5020038;28;20084;-64
2022/02/12 07:08:00;;;;;;;38.08;4.18;;;;;;;;;;5019132;28;19968;-64
2022/02/12 07:10:26;;;;;;;29.10;3.60;;;;;;;;;;5024128;28;20081;-63
2022/02/12 07:12:53;;;;;;;24.38;3.60;;;;;;;;;;5019598;28;20303;-64
2022/02/12 07:15:19;;;;;;;23.02;3.15;;;;;;;;;;5025369;28;20132;-64
2022/02/12 07:17:46;;;;;;;31.30;3.97;;;;;;;;;;5026883;28;20133;-64
2022/02/12 07:20:13;;;;;;;26.08;3.15;;;;;;;;;;5023379;28;20085;-64
2022/02/12 07:22:41;;;;;;;29.52;3.60;;;;;;;;;;5024610;28;20184;-63
2022/02/12 07:25:10;;;;;;;20.40;2.83;;;;;;;;;;5020864;28;20112;-63
2022/02/12 07:27:40;;;;;;;33.45;4.90;;;;;;;;;;5022736;28;20141;-64
2022/02/12 07:30:08;;;;;;;17.10;2.90;;;;;;;;;;5022029;28;20134;-63
2022/02/12 07:32:35;;;;;;;27.90;3.83;;;;;;;;;;5023598;28;20124;-63
2022/02/12 07:35:02;;;;;;;16.20;3.40;;;;;;;;;;5023221;28;20081;-63
2022/02/12 07:37:29;;;;;;;30.33;3.55;;;;;;;;;;5024465;28;20160;-64
2022/02/12 07:39:55;;;;;;;24.50;3.45;;;;;;;;;;5021706;28;20136;-63
2022/02/12 07:42:28;;;;;;;20.50;3.40;;;;;;;;;;5022997;28;20132;-63
2022/02/12 07:44:55;;;;;;;21.08;3.55;;;;;;;;;;5023625;28;20149;-63
2022/02/12 07:47:21;;;;;;;22.13;3.58;;;;;;;;;;5019380;28;20455;-63
2022/02/12 07:49:54;;;;;;;33.95;3.78;;;;;;;;;;5022173;28;20481;-63
2022/02/12 07:52:21;;;;;;;18.15;3.38;;;;;;;;;;5022556;28;20046;-63
2022/02/12 07:54:47;;;;;;;29.77;3.60;;;;;;;;;;5020547;28;20088;-63
2022/02/12 07:57:15;;;;;;;26.20;3.33;;;;;;;;;;5020114;28;20128;-63
2022/02/12 07:59:42;;;;;;;24.33;3.10;;;;;;;;;;5021026;28;20059;-64
2022/02/12 08:02:08;;;;;;;33.83;4.38;;;;;;;;;;5021127;28;20073;-64
2022/02/12 08:04:41;;;;;;;24.25;3.72;;;;;;;;;;5025060;28;20104;-63
2022/02/12 08:10:02;;;;;;;26.83;3.85;;;;;;;;;;5029125;28;20148;-63
2022/02/12 08:12:28;;;;;;;33.80;4.95;;;;;;;;;;5028884;28;20099;-63
2022/02/12 08:14:56;;;;;;;16.00;2.83;;;;;;;;;;5027204;28;20049;-63
2022/02/12 08:17:24;;;;;;;27.60;4.22;;;;;;;;;;5027974;28;20049;-63
2022/02/12 08:19:51;;;;;;;16.45;2.67;;;;;;;;;;5027866;28;20087;-63
2022/02/12 08:22:18;;;;;;;27.60;3.25;;;;;;;;;;5028334;28;20315;-63
2022/02/12 08:24:45;;;;;;;27.77;3.17;;;;;;;;;;5026723;28;20089;-63
2022/02/12 08:27:12;;;;;;;31.92;3.72;;;;;;;;;;5012624;28;20462;-63
2022/02/12 08:29:40;;;;;;;24.55;3.53;;;;;;;;;;5028394;28;20148;-63
2022/02/12 08:32:15;;;;;;;25.42;3.25;;;;;;;;;;5027532;28;20636;-63
2022/02/12 08:34:42;;;;;;;27.90;3.45;;;;;;;;;;5030270;28;20145;-64
2022/02/12 08:37:11;;;;;;;21.83;3.20;;;;;;;;;;5029495;28;20054;-64
2022/02/12 08:39:46;;;;;;;22.80;2.90;;;;;;;;;;5024083;28;20099;-63
2022/02/12 08:42:13;;;;;;;31.73;4.30;;;;;;;;;;5028520;28;20103;-63
2022/02/12 08:44:39;;;;;;;18.55;3.17;;;;;;;;;;5023566;28;20501;-63
2022/02/12 08:47:09;;;;;;;27.27;2.95;;;;;;;;;;5012612;28;20145;-63
2022/02/12 08:49:36;;;;;;;22.60;3.78;;;;;;;;;;5027703;28;20136;-63
2022/02/12 08:52:03;;;;;;;21.00;3.33;;;;;;;;;;5026602;28;20045;-63
2022/02/12 08:54:37;;;;;;;21.08;4.05;;;;;;;;;;5028620;28;20501;-63
2022/02/12 08:57:03;;;;;;;31.10;4.65;;;;;;;;;;5028751;28;20073;-63
2022/02/12 08:59:30;;;;;;;28.17;3.55;;;;;;;;;;5028536;28;20085;-63
2022/02/12 09:02:06;;;;;;;25.38;3.85;;;;;;;;;;5030371;28;20111;-63
2022/02/12 09:04:34;;;;;;;28.52;4.32;;;;;;;;;;5027342;28;20501;-63
2022/02/12 09:07:01;;;;;;;18.98;3.60;;;;;;;;;;5026111;28;20489;-63
2022/02/12 09:09:28;;;;;;;24.55;4.18;;;;;;;;;;5028951;28;20105;-63
2022/02/12 09:11:54;;;;;;;17.58;3.10;;;;;;;;;;5028039;28;20080;-63
2022/02/12 09:14:20;;;;;;;19.90;3.65;;;;;;;;;;5026899;28;20049;-63
2022/02/12 09:16:47;;;;;;;23.45;4.28;;;;;;;;;;5024452;28;20129;-63
2022/02/12 09:19:13;;;;;;;21.83;3.47;;;;;;;;;;5023242;28;20144;-63
2022/02/12 09:21:41;;;;;;;23.23;3.08;;;;;;;;;;5024522;28;20045;-63
2022/02/12 09:24:08;;;;;;;20.83;3.28;;;;;;;;;;5026014;28;20080;-63
2022/02/12 09:26:34;;;;;;;20.20;3.53;;;;;;;;;;5011803;28;20545;-63
2022/02/12 09:29:02;;;;;;;28.80;4.10;;;;;;;;;;5029663;28;20073;-63
2022/02/12 09:31:29;;;;;;;25.60;2.72;;;;;;;;;;5022693;28;20069;-63
2022/02/12 09:33:55;;;;;;;22.13;3.20;;;;;;;;;;5020419;28;20088;-63
2022/02/12 09:36:28;;;;;;;22.42;3.50;;;;;;;;;;5025116;28;20077;-63
2022/02/12 09:38:55;;;;;;;21.40;3.17;;;;;;;;;;5008543;28;20131;-63
2022/02/12 09:41:23;;;;;;;19.90;3.30;;;;;;;;;;5026578;28;20136;-63
2022/02/12 09:43:57;;;;;;;18.42;3.38;;;;;;;;;;5022466;28;20045;-63
2022/02/12 09:46:32;;;;;;;16.33;3.25;;;;;;;;;;5024044;28;20085;-63
2022/02/12 09:49:04;;;;;;;28.48;3.50;;;;;;;;;;5021864;28;20050;-63
2022/02/12 09:51:31;;;;;;;31.27;4.75;;;;;;;;;;5022680;28;20074;-63
2022/02/12 09:53:58;;;;;;;20.88;3.17;;;;;;;;;;5021302;28;20145;-64
2022/02/12 09:56:27;;;;;;;13.55;2.65;;;;;;;;;;5024719;28;20073;-63
2022/02/12 09:58:54;;;;;;;18.33;2.88;;;;;;;;;;5025539;28;20089;-63
2022/02/12 10:01:20;;;;;;;19.52;2.97;;;;;;;;;;5024723;28;20448;-63
2022/02/12 10:03:53;;;;;;;25.10;3.92;;;;;;;;;;5020658;28;20045;-63
2022/02/12 10:06:41;;;;;;;25.60;3.28;;;;;;;;;;5020419;28;20132;-63
2022/02/12 10:09:15;;;;;;;20.85;3.05;;;;;;;;;;5020176;28;20147;-63
2022/02/12 10:11:43;;;;;;;24.02;3.80;;;;;;;;;;5023444;28;20073;-63
2022/02/12 10:14:11;;;;;;;23.90;3.10;;;;;;;;;;5021263;28;20127;-63
2022/02/12 10:17:07;;;;;;;14.82;3.10;;;;;;;;;;5025996;28;20073;-63
2022/02/12 10:19:34;;;;;;;25.75;4.18;;;;;;;;;;5006584;28;20121;-63
2022/02/12 10:22:04;;;;;;;19.17;2.70;;;;;;;;;;5024104;28;20148;-63
2022/02/12 10:24:43;;;;;;;13.35;2.60;;;;;;;;;;5023872;28;20049;-63
2022/02/12 10:27:17;;;;;;;24.45;3.95;;;;;;;;;;5020928;28;20115;-63
2022/02/12 10:29:45;;;;;;;17.27;2.60;;;;;;;;;;5022117;28;20738;-63
2022/02/12 10:32:13;;;;;;;24.27;3.47;;;;;;;;;;5020653;28;20041;-63
2022/02/12 10:34:56;;;;;;;26.13;3.40;;;;;;;;;;5023389;28;20091;-63
2022/02/12 10:37:23;;;;;;;34.70;3.95;;;;;;;;;;5022924;28;20132;-64
2022/02/12 10:39:58;;;;;;;19.40;3.35;;;;;;;;;;5025694;28;20088;-63
2022/02/12 10:42:26;;;;;;;31.02;3.25;;;;;;;;;;5020673;28;20077;-63
2022/02/12 10:44:58;;;;;;;16.02;3.28;;;;;;;;;;5021692;28;20054;-63
2022/02/12 10:47:29;;;;;;;17.15;2.88;;;;;;;;;;5024761;28;20089;-63
2022/02/12 10:49:56;;;;;;;25.92;4.05;;;;;;;;;;5022262;28;20129;-63
2022/02/12 10:52:23;;;;;;;19.65;3.42;;;;;;;;;;5025084;28;20609;-63
2022/02/12 10:54:51;;;;;;;26.52;3.42;;;;;;;;;;5022651;28;20080;-63
2022/02/12 10:57:18;;;;;;;39.00;3.85;;;;;;;;;;5024255;28;20050;-62
2022/02/12 10:59:45;;;;;;;25.73;4.07;;;;;;;;;;5025027;28;20156;-63
2022/02/12 11:02:15;;;;;;;24.63;3.40;;;;;;;;;;5020739;28;20081;-63
2022/02/12 11:04:43;;;;;;;20.20;3.33;;;;;;;;;;5019811;28;20103;-63
2022/02/12 11:07:16;;;;;;;20.20;3.72;;;;;;;;;;5023624;28;20099;-63
2022/02/12 11:09:44;;;;;;;20.55;3.22;;;;;;;;;;5022634;28;20576;-63
2022/02/12 11:12:11;;;;;;;23.83;3.97;;;;;;;;;;5021427;28;20083;-63
2022/02/12 11:14:38;;;;;;;23.15;2.92;;;;;;;;;;5022047;28;20141;-63
2022/02/12 11:17:10;;;;;;;17.30;2.95;;;;;;;;;;5021609;28;20133;-62
2022/02/12 11:19:37;;;;;;;23.42;3.65;;;;;;;;;;5022431;28;20049;-63
2022/02/12 11:22:04;;;;;;;12.17;2.70;;;;;;;;;;5023400;28;20140;-63
2022/02/12 11:24:35;;;;;;;18.73;2.92;;;;;;;;;;5020120;28;20363;-63
2022/02/12 11:27:14;;;;;;;26.67;3.53;;;;;;;;;;5020793;28;20127;-63
2022/02/12 11:29:41;;;;;;;22.63;3.00;;;;;;;;;;5020773;28;20577;-63
2022/02/12 11:32:09;;;;;;;9.38;2.30;;;;;;;;;;5017456;28;20042;-63
2022/02/12 11:34:39;;;;;;;24.17;3.17;;;;;;;;;;5018998;28;20501;-63
2022/02/12 11:37:16;;;;;;;20.02;3.33;;;;;;;;;;5023175;28;20132;-62
2022/02/12 11:40:01;;;;;;;27.75;4.13;;;;;;;;;;5024440;28;20085;-63
2022/02/12 11:42:43;;;;;;;26.77;3.67;;;;;;;;;;5019829;28;20081;-63
2022/02/12 11:45:21;;;;;;;25.83;4.40;;;;;;;;;;5020899;28;20053;-62
2022/02/12 11:48:06;;;;;;;20.60;3.08;;;;;;;;;;5019762;28;20077;-63
2022/02/12 11:50:51;;;;;;;21.85;2.80;;;;;;;;;;5019370;28;20085;-62
2022/02/12 11:53:28;;;;;;;21.63;4.10;;;;;;;;;;5022008;28;20074;-63
2022/02/12 11:55:54;;;;;;;14.27;3.45;;;;;;;;;;5018374;28;20085;-63
2022/02/12 11:58:40;;;;;;;11.38;2.78;;;;;;;;;;5024420;28;20072;-63
2022/02/12 12:01:32;;;;;;;18.33;3.10;;;;;;;;;;5018936;28;20103;-62
2022/02/12 12:04:11;;;;;;;22.90;3.97;;;;;;;;;;5009167;28;20045;-63
2022/02/12 12:06:56;;;;;;;14.80;2.45;;;;;;;;;;5022264;28;20045;-62
2022/02/12 12:09:31;;;;;;;19.75;4.50;;;;;;;;;;5029682;28;20053;-63
2022/02/12 12:12:10;;;;;;;15.15;2.50;;;;;;;;;;5038951;28;20045;-63
2022/02/12 12:14:38;;;;;;;28.92;3.53;;;;;;;;;;5042891;28;20136;-63
2022/02/12 12:17:04;;;;;;;13.67;2.83;;;;;;;;;;5026094;28;20117;-63
2022/02/12 12:19:32;;;;;;;18.05;3.25;;;;;;;;;;5039521;28;20049;-63
2022/02/12 12:22:00;;;;;;;21.45;3.17;;;;;;;;;;5038569;28;20173;-63
2022/02/12 12:24:26;;;;;;;16.48;2.28;;;;;;;;;;5037352;28;20564;-63
2022/02/12 12:26:53;;;;;;;15.23;2.47;;;;;;;;;;5037833;28;20137;-63
2022/02/12 12:32:13;;;;;;;24.42;3.60;;;;;;;;;;5039925;28;20544;-62
2022/02/12 12:35:03;;;;;;;30.13;4.05;;;;;;;;;;5041799;28;20132;-62
2022/02/12 12:37:31;;;;;;;25.13;3.60;;;;;;;;;;5041628;28;20161;-62
2022/02/12 12:39:58;;;;;;;22.33;3.10;;;;;;;;;;5041864;28;20084;-62
2022/02/12 12:42:26;;;;;;;13.25;2.78;;;;;;;;;;5041708;28;20061;-62
2022/02/12 12:44:58;;;;;;;14.45;3.20;;;;;;;;;;5043286;28;20144;-62
2022/02/12 12:47:26;;;;;;;23.48;3.78;;;;;;;;;;5040187;28;20078;-62
2022/02/12 12:49:53;;;;;;;17.92;3.15;;;;;;;;;;5039305;28;20096;-63
2022/02/12 12:52:23;;;;;;;19.80;3.40;;;;;;;;;;5045007;28;20136;-62
2022/02/12 12:55:12;;;;;;;23.45;3.80;;;;;;;;;;5042138;28;20583;-63
2022/02/12 12:57:43;;;;;;;21.10;3.33;;;;;;;;;;5045132;28;20069;-63
2022/02/12 13:00:17;;;;;;;31.25;4.15;;;;;;;;;;5044062;28;20135;-62
2022/02/12 13:02:50;;;;;;;25.55;3.45;;;;;;;;;;5044388;28;20071;-63
2022/02/12 13:05:24;;;;;;;22.45;3.47;;;;;;;;;;5046269;28;20076;-63
2022/02/12 13:07:51;;;;;;;28.75;3.63;;;;;;;;;;5045212;28;20063;-62
2022/02/12 13:10:22;;;;;;;18.20;2.92;;;;;;;;;;5028370;28;20050;-63
2022/02/12 13:12:49;;;;;;;29.75;4.10;;;;;;;;;;5025059;28;20111;-62
2022/02/12 13:15:18;;;;;;;21.30;3.28;;;;;;;;;;5023472;28;20139;-62
2022/02/12 13:17:46;;;;;;;16.77;3.20;;;;;;;;;;5026018;28;20096;-63
2022/02/12 13:20:17;;;;;;;24.75;3.00;;;;;;;;;;5012036;28;20085;-62
2022/02/12 13:22:51;;;;;;;20.40;3.17;;;;;;;;;;5024758;28;20085;-62
2022/02/12 13:25:29;;;;;;;31.27;5.28;;;;;;;;;;5024725;28;20045;-62
2022/02/12 13:27:56;;;;;;;26.23;4.45;;;;;;;;;;5021019;28;20140;-62
2022/02/12 13:30:26;;;;;;;24.42;3.50;;;;;;;;;;5025565;28;20593;-62
2022/02/12 13:32:57;;;;;;;27.80;4.07;;;;;;;;;;5022422;28;20129;-62
2022/02/12 13:35:24;;;;;;;18.17;3.08;;;;;;;;;;5021212;28;20085;-62
2022/02/12 13:37:52;;;;;;;11.18;2.33;;;;;;;;;;5025005;28;20075;-62
2022/02/12 13:40:28;;;;;;;28.30;4.40;;;;;;;;;;5022207;28;20118;-63
2022/02/12 13:42:56;;;;;;;34.60;4.65;;;;;;;;;;5024417;28;20481;-63
2022/02/12 13:45:22;;;;;;;;;;;;;;;;;;5020817;28;20091;-63
2022/02/12 13:47:49;;;;;;;26.50;4.38;;;;;;;;;;5021799;28;19959;-62
2022/02/12 13:50:21;;;;;;;20.70;3.38;;;;;;;;;;5016806;28;20149;-62
2022/02/12 13:52:54;;;;;;;28.02;3.92;;;;;;;;;;5021195;28;20148;-63
2022/02/12 13:55:21;;;;;;;22.90;4.43;;;;;;;;;;5023559;28;20076;-63
2022/02/12 13:57:47;;;;;;;26.42;4.05;;;;;;;;;;5022801;28;20165;-62
2022/02/12 14:00:15;;;;;;;23.23;3.00;;;;;;;;;;5020592;28;20131;-62
2022/02/12 14:02:45;;;;;;;33.38;4.22;;;;;;;;;;5021698;28;20108;-62
2022/02/12 14:05:12;;;;;;;25.17;3.97;;;;;;;;;;5022242;28;20078;-62
2022/02/12 14:07:42;;;;;;;32.95;5.18;;;;;;;;;;5023288;28;20045;-63
2022/02/12 14:10:09;;;;;;;;;;;;;;;;;;5022761;28;20496;-63
2022/02/12 14:12:36;;;;;;;22.10;3.75;;;;;;;;;;5019721;28;19929;-62
2022/02/12 14:15:06;;;;;;;24.05;3.92;;;;;;;;;;5026955;28;20497;-62
2022/02/12 14:17:32;;;;;;;25.88;4.47;;;;;;;;;;5024734;28;20045;-62
2022/02/12 14:19:59;;;;;;;20.52;4.00;;;;;;;;;;5022120;28;20517;-62
2022/02/12 14:22:25;;;;;;;29.43;5.03;;;;;;;;;;5024036;28;20091;-62
2022/02/12 14:24:52;;;;;;;32.00;4.55;;;;;;;;;;5023025;28;20087;-62
2022/02/12 14:27:18;;;;;;;28.85;5.07;;;;;;;;;;5018719;28;20081;-62
2022/02/12 14:29:45;;;;;;;24.95;3.50;;;;;;;;;;5024466;28;20073;-62
2022/02/12 14:32:11;;;;;;;24.88;4.03;;;;;;;;;;5018534;28;20053;-62
2022/02/12 14:34:38;;;;;;;28.38;4.25;;;;;;;;;;5024418;28;20585;-62
2022/02/12 14:37:05;;;;;;;19.95;3.53;;;;;;;;;;5023591;28;20084;-62
2022/02/12 14:39:32;;;;;;;23.55;4.60;;;;;;;;;;5044370;28;20088;-62
2022/02/12 14:41:58;;;;;;;27.88;4.28;;;;;;;;;;5041349;28;20088;-62
2022/02/12 14:44:25;;;;;;;25.85;3.92;;;;;;;;;;5030417;28;20476;-62
2022/02/12 14:46:52;;;;;;;24.27;4.05;;;;;;;;;;5035750;28;20524;-62
2022/02/12 14:49:20;;;;;;;23.40;3.47;;;;;;;;;;5034640;28;20180;-63
2022/02/12 14:51:53;;;;;;;31.88;4.72;;;;;;;;;;5022344;28;22104;-62